createdAt,value
2023-02-20T00:01:49.149Z,84.36
2023-02-20T00:04:17.227Z,84.30
2023-02-20T00:06:45.326Z,84.83
2023-02-20T00:09:14.058Z,85.06
2023-02-20T00:11:42.179Z,84.70
2023-02-20T00:14:10.189Z,84.70
2023-02-20T00:16:40.031Z,84.55
2023-02-20T00:19:08.075Z,84.70
2023-02-20T00:21:36.132Z,84.79
2023-02-20T00:24:05.578Z,84.48
2023-02-20T00:26:33.593Z,84.50
2023-02-20T00:29:01.633Z,84.50
2023-02-20T00:31:29.755Z,84.25
2023-02-20T00:33:59.148Z,83.57
2023-02-20T00:36:27.148Z,83.14
2023-02-20T00:38:55.194Z,83.29
2023-02-20T00:41:23.204Z,83.30
2023-02-20T00:43:51.290Z,82.86
2023-02-20T00:46:19.330Z,82.92
2023-02-20T00:48:47.406Z,82.60
2023-02-20T00:51:16.785Z,83.03
2023-02-20T00:53:44.831Z,82.69
2023-02-20T00:56:13.183Z,82.46
2023-02-20T00:58:41.681Z,82.58
2023-02-20T01:01:09.958Z,82.24
2023-02-20T01:03:38.235Z,82.29
2023-02-20T01:06:06.721Z,82.02
2023-02-20T01:08:36.157Z,82.20
2023-02-20T01:11:04.333Z,82.20
2023-02-20T01:13:33.015Z,81.95
2023-02-20T01:16:01.190Z,81.61
2023-02-20T01:18:29.694Z,81.81
2023-02-20T01:20:57.881Z,81.73
2023-02-20T01:23:26.297Z,81.77
2023-02-20T01:25:55.698Z,81.84
2023-02-20T01:28:23.749Z,81.76
2023-02-20T01:30:51.819Z,82.01
2023-02-20T01:33:19.923Z,81.78
2023-02-20T01:35:48.000Z,81.47
2023-02-20T01:38:16.063Z,81.91
2023-02-20T01:40:49.769Z,81.69
2023-02-20T01:43:19.464Z,81.49
2023-02-20T01:45:47.494Z,81.41
2023-02-20T01:48:24.243Z,81.58
2023-02-20T01:50:59.041Z,80.81
2023-02-20T01:53:31.622Z,81.12
2023-02-20T01:56:06.848Z,81.00
2023-02-20T01:58:43.070Z,80.92
2023-02-20T02:01:12.723Z,80.68
2023-02-20T02:03:45.537Z,80.78
2023-02-20T02:06:16.728Z,80.82
2023-02-20T02:08:47.041Z,80.63
2023-02-20T02:11:19.514Z,80.63
2023-02-20T02:13:49.233Z,80.93
2023-02-20T02:16:32.401Z,80.95
2023-02-20T02:19:14.280Z,80.72
2023-02-20T02:22:30.365Z,80.88
2023-02-20T02:25:48.208Z,80.72
2023-02-20T02:29:04.446Z,80.60
2023-02-20T02:32:12.335Z,80.96
2023-02-20T02:35:26.786Z,81.00
2023-02-20T02:38:10.242Z,81.35
2023-02-20T02:40:46.857Z,81.20
2023-02-20T02:43:24.823Z,81.20
2023-02-20T02:45:56.463Z,81.26
2023-02-20T02:48:32.335Z,80.92
2023-02-20T02:51:10.892Z,81.04
2023-02-20T02:53:40.571Z,80.81
2023-02-20T02:56:22.321Z,81.21
2023-02-20T02:58:55.536Z,81.12
2023-02-20T03:01:24.422Z,80.79
2023-02-20T03:03:56.099Z,80.83
2023-02-20T03:06:35.343Z,80.56
2023-02-20T03:09:11.781Z,80.97
2023-02-20T03:11:42.337Z,81.21
2023-02-20T03:14:35.043Z,80.77
2023-02-20T03:17:15.075Z,81.23
2023-02-20T03:19:47.485Z,81.28
2023-02-20T03:22:22.814Z,81.41
2023-02-20T03:24:58.052Z,81.39
2023-02-20T03:27:38.823Z,81.08
2023-02-20T03:30:13.293Z,81.46
2023-02-20T03:33:01.566Z,81.59
2023-02-20T03:35:52.438Z,81.70
2023-02-20T03:38:42.426Z,81.51
2023-02-20T03:41:33.255Z,81.61
2023-02-20T03:44:07.403Z,81.45
2023-02-20T03:46:39.707Z,81.48
2023-02-20T03:49:13.421Z,81.44
2023-02-20T03:51:42.478Z,81.30
2023-02-20T03:54:11.448Z,81.36
2023-02-20T03:56:45.923Z,81.35
2023-02-20T03:59:20.084Z,81.63
2023-02-20T04:01:55.205Z,81.47
2023-02-20T04:04:34.301Z,81.59
2023-02-20T04:07:08.233Z,81.63
2023-02-20T04:09:41.751Z,81.41
2023-02-20T04:12:21.367Z,81.51
2023-02-20T04:14:52.598Z,81.38
2023-02-20T04:17:28.740Z,81.24
2023-02-20T04:19:56.828Z,81.39
2023-02-20T04:22:30.932Z,81.44
2023-02-20T04:25:04.435Z,81.39
2023-02-20T04:27:34.576Z,81.56
2023-02-20T04:30:02.885Z,81.58
2023-02-20T04:32:30.961Z,81.23
2023-02-20T04:34:58.985Z,81.33
2023-02-20T04:37:27.024Z,81.27
2023-02-20T04:39:55.724Z,81.23
2023-02-20T04:42:23.761Z,81.12
2023-02-20T04:44:53.143Z,81.26
2023-02-20T04:47:21.452Z,80.92
2023-02-20T04:49:49.513Z,81.13
2023-02-20T04:52:17.656Z,81.21
2023-02-20T04:54:45.691Z,81.07
2023-02-20T04:57:13.734Z,80.83
2023-02-20T04:59:41.818Z,80.92
2023-02-20T05:02:11.515Z,80.98
2023-02-20T05:04:39.658Z,81.06
2023-02-20T05:07:07.980Z,81.45
2023-02-20T05:09:36.030Z,81.26
2023-02-20T05:12:04.300Z,81.64
2023-02-20T05:14:32.292Z,81.56
2023-02-20T05:17:00.346Z,81.78
2023-02-20T05:19:29.751Z,82.10
2023-02-20T05:22:15.587Z,82.30
2023-02-20T05:24:44.530Z,82.26
2023-02-20T05:27:14.771Z,82.28
2023-02-20T05:29:47.083Z,82.22
2023-02-20T05:32:16.656Z,82.36
2023-02-20T05:34:46.755Z,82.18
2023-02-20T05:37:17.873Z,82.36
2023-02-20T05:39:47.555Z,82.39
2023-02-20T05:42:17.445Z,82.28
2023-02-20T05:44:46.104Z,81.49
2023-02-20T05:47:14.222Z,81.73
2023-02-20T05:49:42.276Z,81.51
2023-02-20T05:52:13.814Z,82.17
2023-02-20T05:54:43.058Z,81.72
2023-02-20T05:57:13.717Z,81.27
2023-02-20T05:59:41.832Z,81.35
2023-02-20T06:02:09.954Z,81.64
2023-02-20T06:04:38.041Z,81.88
2023-02-20T06:07:06.106Z,82.11
2023-02-20T06:09:35.485Z,81.86
2023-02-20T06:12:03.504Z,81.65
2023-02-20T06:14:31.539Z,81.23
2023-02-20T06:16:59.632Z,81.43
2023-02-20T06:19:27.783Z,81.66
2023-02-20T06:21:58.623Z,80.88
2023-02-20T06:24:27.149Z,80.85
2023-02-20T06:26:57.114Z,81.20
2023-02-20T06:29:25.566Z,81.04
2023-02-20T06:31:53.856Z,80.91
2023-02-20T06:34:23.477Z,81.06
2023-02-20T06:36:51.526Z,80.57
2023-02-20T06:39:19.530Z,80.75
2023-02-20T06:41:47.562Z,80.31
2023-02-20T06:44:16.998Z,80.29
2023-02-20T06:46:45.130Z,80.37
2023-02-20T06:49:13.516Z,80.46
2023-02-20T06:51:42.903Z,80.51
2023-02-20T06:54:13.294Z,80.59
2023-02-20T06:56:41.354Z,80.18
2023-02-20T06:59:09.887Z,80.13
2023-02-20T07:01:44.426Z,80.11
2023-02-20T07:04:18.520Z,80.09
2023-02-20T07:06:47.129Z,79.95
2023-02-20T07:09:16.345Z,80.63
2023-02-20T07:11:44.863Z,80.18
2023-02-20T07:14:13.973Z,80.14
2023-02-20T07:16:43.362Z,79.55
2023-02-20T07:19:11.438Z,79.03
2023-02-20T07:21:39.700Z,79.48
2023-02-20T07:24:08.607Z,79.44
2023-02-20T07:26:39.397Z,78.82
2023-02-20T07:29:08.193Z,78.66
2023-02-20T07:31:36.322Z,78.63
2023-02-20T07:34:06.129Z,78.59
2023-02-20T07:36:34.164Z,78.51
2023-02-20T07:39:06.580Z,78.33
2023-02-20T07:41:35.837Z,78.59
2023-02-20T07:44:04.464Z,77.27
2023-02-20T07:46:34.064Z,76.92
2023-02-20T07:49:03.090Z,77.12
2023-02-20T07:51:33.715Z,76.89
2023-02-20T07:54:03.279Z,76.69
2023-02-20T07:56:32.007Z,77.07
2023-02-20T07:59:01.047Z,77.09
2023-02-20T08:01:29.842Z,76.71
2023-02-20T08:03:57.888Z,75.89
2023-02-20T08:06:26.021Z,76.14
2023-02-20T08:08:55.440Z,76.22
2023-02-20T08:11:25.266Z,74.98
2023-02-20T08:13:55.497Z,75.57
2023-02-20T08:16:23.765Z,75.42
2023-02-20T08:18:51.862Z,75.50
2023-02-20T08:21:20.011Z,75.91
2023-02-20T08:23:48.247Z,75.70
2023-02-20T08:26:17.665Z,75.14
2023-02-20T08:28:48.074Z,75.50
2023-02-20T08:31:31.286Z,74.80
2023-02-20T08:34:00.118Z,74.45
2023-02-20T08:36:28.658Z,74.35
2023-02-20T08:38:57.188Z,74.84
2023-02-20T08:41:27.099Z,74.42
2023-02-20T08:43:55.158Z,75.01
2023-02-20T08:46:23.630Z,74.66
2023-02-20T08:48:51.740Z,74.92
2023-02-20T08:51:21.026Z,74.93
2023-02-20T08:53:49.093Z,74.59
2023-02-20T08:56:20.928Z,74.44
2023-02-20T08:58:50.318Z,74.00
2023-02-20T09:01:18.460Z,73.79
2023-02-20T09:03:46.540Z,74.27
2023-02-20T09:06:14.915Z,74.49
2023-02-20T09:08:43.167Z,74.79
2023-02-20T09:11:12.110Z,74.77
2023-02-20T09:13:44.627Z,74.16
2023-02-20T09:16:15.393Z,73.97
2023-02-20T09:18:44.946Z,74.18
2023-02-20T09:21:16.112Z,74.46
2023-02-20T09:23:44.367Z,74.53
2023-02-20T09:26:13.008Z,75.78
2023-02-20T09:28:41.498Z,75.62
2023-02-20T09:31:09.575Z,75.91
2023-02-20T09:33:39.030Z,76.34
2023-02-20T09:36:08.544Z,76.62
2023-02-20T09:38:36.594Z,77.09
2023-02-20T09:41:05.576Z,77.10
2023-02-20T09:43:51.726Z,77.55
2023-02-20T09:46:22.776Z,77.73
2023-02-20T09:49:06.955Z,77.89
2023-02-20T09:51:39.355Z,77.96
2023-02-20T09:54:19.243Z,78.17
2023-02-20T09:56:54.361Z,78.50
2023-02-20T09:59:28.495Z,78.85
2023-02-20T10:02:02.409Z,78.42
2023-02-20T10:04:38.680Z,78.84
2023-02-20T10:07:22.013Z,78.80
2023-02-20T10:09:50.466Z,78.99
2023-02-20T10:12:31.779Z,78.95
2023-02-20T10:15:25.446Z,79.42
2023-02-20T10:18:10.128Z,79.78
2023-02-20T10:20:48.249Z,79.58
2023-02-20T10:23:33.197Z,80.11
2023-02-20T10:26:07.870Z,79.83
2023-02-20T10:28:36.945Z,79.95
2023-02-20T10:31:25.330Z,80.17
2023-02-20T10:34:02.452Z,80.44
2023-02-20T10:36:40.641Z,80.01
2023-02-20T10:39:11.984Z,80.30
2023-02-20T10:41:51.210Z,80.50
2023-02-20T10:44:26.948Z,80.54
2023-02-20T10:47:03.262Z,80.49
2023-02-20T10:49:45.348Z,80.71
2023-02-20T10:52:33.078Z,80.74
2023-02-20T10:55:12.177Z,80.97
2023-02-20T10:57:49.186Z,81.05
2023-02-20T11:00:24.506Z,80.62
2023-02-20T11:03:02.320Z,81.19
2023-02-20T11:05:39.576Z,81.02
2023-02-20T11:08:09.241Z,81.22
2023-02-20T11:10:38.717Z,81.08
2023-02-20T11:13:17.782Z,81.25
2023-02-20T11:15:49.120Z,81.41
2023-02-20T11:18:28.155Z,81.41
2023-02-20T11:20:57.735Z,81.37
2023-02-20T11:23:42.847Z,81.50
2023-02-20T11:26:30.424Z,81.83
2023-02-20T11:29:03.913Z,81.61
2023-02-20T11:31:33.579Z,81.83
2023-02-20T11:34:03.959Z,82.13
2023-02-20T11:36:40.359Z,81.93
2023-02-20T11:39:23.426Z,82.07
2023-02-20T11:42:07.196Z,82.08
2023-02-20T11:44:35.337Z,82.24
2023-02-20T11:47:26.780Z,81.90
2023-02-20T11:50:20.932Z,82.00
2023-02-20T11:53:04.746Z,81.98
2023-02-20T11:55:35.435Z,82.50
2023-02-20T11:58:04.494Z,82.28
2023-02-20T12:00:48.561Z,81.90
2023-02-20T12:03:23.101Z,82.16
2023-02-20T12:05:51.284Z,82.71
2023-02-20T12:08:37.758Z,82.63
2023-02-20T12:11:13.033Z,82.38
2023-02-20T12:13:44.921Z,82.59
2023-02-20T12:16:41.868Z,82.60
2023-02-20T12:19:18.819Z,82.22
2023-02-20T12:22:05.700Z,82.92
2023-02-20T12:25:02.338Z,82.60
2023-02-20T12:27:55.770Z,83.17
2023-02-20T12:30:42.296Z,82.82
2023-02-20T12:33:38.120Z,83.75
2023-02-20T12:36:20.901Z,84.06
2023-02-20T12:38:54.421Z,84.19
2023-02-20T12:41:37.356Z,84.77
2023-02-20T12:44:30.365Z,84.89
2023-02-20T12:47:14.786Z,85.12
2023-02-20T12:50:06.450Z,85.15
2023-02-20T12:53:05.531Z,86.07
2023-02-20T12:55:49.963Z,86.63
2023-02-20T12:58:33.130Z,87.19
2023-02-20T13:01:08.141Z,87.10
2023-02-20T13:03:52.399Z,87.56
2023-02-20T13:06:31.275Z,87.72
2023-02-20T13:09:12.360Z,87.66
2023-02-20T13:11:47.205Z,87.94
2023-02-20T13:14:33.392Z,88.03
2023-02-20T13:17:19.711Z,87.90
2023-02-20T13:19:59.129Z,88.11
2023-02-20T13:22:27.274Z,87.95
2023-02-20T13:24:55.345Z,87.67
2023-02-20T13:27:33.977Z,87.84
2023-02-20T13:30:11.592Z,87.10
2023-02-20T13:32:41.766Z,87.04
2023-02-20T13:35:36.218Z,87.15
2023-02-20T13:38:13.890Z,87.11
2023-02-20T13:40:46.946Z,86.76
2023-02-20T13:43:28.074Z,86.26
2023-02-20T13:46:20.213Z,86.57
2023-02-20T13:48:52.370Z,86.49
2023-02-20T13:51:38.302Z,86.03
2023-02-20T13:54:28.396Z,86.63
2023-02-20T13:57:04.720Z,86.79
2023-02-20T13:59:34.513Z,86.43
2023-02-20T14:02:17.453Z,86.59
2023-02-20T14:05:03.087Z,86.77
2023-02-20T14:07:39.258Z,86.92
2023-02-20T14:10:16.969Z,87.19
2023-02-20T14:12:46.190Z,86.98
2023-02-20T14:15:14.662Z,87.04
2023-02-20T14:17:44.056Z,87.37
2023-02-20T14:20:24.519Z,87.76
2023-02-20T14:23:10.688Z,87.63
2023-02-20T14:25:40.038Z,88.34
2023-02-20T14:28:16.460Z,88.87
2023-02-20T14:30:44.543Z,88.78
2023-02-20T14:33:29.586Z,89.19
2023-02-20T14:36:22.315Z,89.46
2023-02-20T14:39:17.947Z,89.13
2023-02-20T14:41:54.385Z,88.96
2023-02-20T14:44:24.187Z,88.87
2023-02-20T14:46:56.240Z,88.20
2023-02-20T14:49:28.901Z,88.50
2023-02-20T14:52:17.215Z,88.64
2023-02-20T14:54:57.813Z,88.37
2023-02-20T14:57:26.986Z,88.69
2023-02-20T15:00:23.910Z,88.68
2023-02-20T15:02:56.360Z,88.49
2023-02-20T15:05:31.866Z,89.07
2023-02-20T15:08:21.160Z,88.81
2023-02-20T15:10:52.543Z,89.10
2023-02-20T15:13:26.391Z,89.43
2023-02-20T15:16:08.762Z,89.82
2023-02-20T15:18:39.215Z,90.27
2023-02-20T15:21:08.582Z,90.58
2023-02-20T15:23:39.976Z,90.35
2023-02-20T15:26:32.316Z,90.33
2023-02-20T15:29:22.137Z,90.50
2023-02-20T15:31:58.546Z,90.55
2023-02-20T15:34:30.165Z,90.31
2023-02-20T15:36:59.544Z,90.69
2023-02-20T15:39:29.248Z,91.12
2023-02-20T15:41:58.378Z,91.27
2023-02-20T15:44:27.928Z,91.46
2023-02-20T15:46:56.086Z,91.26
2023-02-20T15:49:24.128Z,91.37
2023-02-20T15:51:56.183Z,91.62
2023-02-20T15:54:29.191Z,91.64
2023-02-20T15:56:57.815Z,92.03
2023-02-20T15:59:26.022Z,91.73
2023-02-20T16:01:54.205Z,91.67
2023-02-20T16:04:22.354Z,91.62
2023-02-20T16:06:50.439Z,91.50
2023-02-20T16:09:18.636Z,91.99
2023-02-20T16:11:49.107Z,91.73
2023-02-20T16:14:17.714Z,91.35
2023-02-20T16:16:49.143Z,91.61
2023-02-20T16:19:24.009Z,91.27
2023-02-20T16:21:59.417Z,91.06
2023-02-20T16:24:28.312Z,90.62
2023-02-20T16:26:57.831Z,90.89
2023-02-20T16:29:34.323Z,90.80
2023-02-20T16:32:19.776Z,90.72
2023-02-20T16:34:49.162Z,91.23
2023-02-20T16:37:18.048Z,90.88
2023-02-20T16:39:47.121Z,91.13
2023-02-20T16:42:34.594Z,90.77
2023-02-20T16:45:07.627Z,91.62
2023-02-20T16:47:35.680Z,91.25
2023-02-20T16:50:07.192Z,92.08
2023-02-20T16:52:38.113Z,91.63
2023-02-20T16:55:09.045Z,91.80
2023-02-20T16:57:38.448Z,92.32
2023-02-20T17:00:07.617Z,92.41
2023-02-20T17:02:35.675Z,92.65
2023-02-20T17:05:03.906Z,93.05
2023-02-20T17:07:32.009Z,92.98
2023-02-20T17:10:00.146Z,92.94
2023-02-20T17:12:28.648Z,93.09
2023-02-20T17:14:58.690Z,93.13
2023-02-20T17:17:26.929Z,92.73
2023-02-20T17:19:56.941Z,92.88
2023-02-20T17:22:27.243Z,93.25
2023-02-20T17:24:56.940Z,93.03
2023-02-20T17:27:25.801Z,92.58
2023-02-20T17:29:54.379Z,92.35
2023-02-20T17:32:24.014Z,92.37
2023-02-20T17:34:52.149Z,92.20
2023-02-20T17:37:20.290Z,92.38
2023-02-20T17:39:48.371Z,92.08
2023-02-20T17:42:16.609Z,91.79
2023-02-20T17:44:44.823Z,91.59
2023-02-20T17:47:14.070Z,91.38
2023-02-20T17:49:44.221Z,91.64
2023-02-20T17:52:12.712Z,91.22
2023-02-20T17:54:46.205Z,90.83
2023-02-20T17:57:14.576Z,90.80
2023-02-20T17:59:43.171Z,91.04
2023-02-20T18:02:15.755Z,90.66
2023-02-20T18:04:45.673Z,90.72
2023-02-20T18:07:17.247Z,90.04
2023-02-20T18:09:45.583Z,90.17
2023-02-20T18:12:13.748Z,90.26
2023-02-20T18:14:41.819Z,90.13
2023-02-20T18:17:09.945Z,90.08
2023-02-20T18:19:38.142Z,89.86
2023-02-20T18:22:07.576Z,89.58
2023-02-20T18:24:36.187Z,89.30
2023-02-20T18:27:04.807Z,89.62
2023-02-20T18:29:33.150Z,89.67
2023-02-20T18:32:01.489Z,89.91
2023-02-20T18:34:31.310Z,90.19
2023-02-20T18:36:59.416Z,90.25
2023-02-20T18:39:28.845Z,89.99
2023-02-20T18:41:58.332Z,90.07
2023-02-20T18:44:27.677Z,90.06
2023-02-20T18:46:57.375Z,90.46
2023-02-20T18:49:25.454Z,90.72
2023-02-20T18:51:53.636Z,91.12
2023-02-20T18:54:29.865Z,91.46
2023-02-20T18:57:00.527Z,91.13
2023-02-20T18:59:28.843Z,91.39
2023-02-20T19:01:57.930Z,91.31
2023-02-20T19:04:26.710Z,91.44
2023-02-20T19:06:54.970Z,91.05
2023-02-20T19:09:25.861Z,91.50
2023-02-20T19:11:57.955Z,91.48
2023-02-20T19:14:29.223Z,91.29
2023-02-20T19:17:00.218Z,91.46
2023-02-20T19:19:31.308Z,90.90
2023-02-20T19:22:00.930Z,91.34
2023-02-20T19:24:29.195Z,90.67
2023-02-20T19:26:58.610Z,90.57
2023-02-20T19:29:26.677Z,90.48
2023-02-20T19:31:54.917Z,90.91
2023-02-20T19:34:23.364Z,90.06
2023-02-20T19:36:51.436Z,90.22
2023-02-20T19:39:19.511Z,90.12
2023-02-20T19:41:50.484Z,90.18
2023-02-20T19:44:19.914Z,90.10
2023-02-20T19:46:51.896Z,90.12
2023-02-20T19:49:20.138Z,90.67
2023-02-20T19:51:49.082Z,90.69
2023-02-20T19:54:19.224Z,90.54
2023-02-20T19:56:49.149Z,90.96
2023-02-20T19:59:19.292Z,91.16
2023-02-20T20:01:52.291Z,91.10
2023-02-20T20:04:22.497Z,90.91
2023-02-20T20:06:51.085Z,90.97
2023-02-20T20:09:35.107Z,90.80
2023-02-20T20:12:04.764Z,89.96
2023-02-20T20:14:35.906Z,89.92
2023-02-20T20:17:04.058Z,90.70
2023-02-20T20:19:32.294Z,90.67
2023-02-20T20:22:00.329Z,91.05
2023-02-20T20:24:28.532Z,90.90
2023-02-20T20:26:58.416Z,91.27
2023-02-20T20:29:27.339Z,90.85
2023-02-20T20:31:56.795Z,91.06
2023-02-20T20:34:26.620Z,91.23
2023-02-20T20:36:54.686Z,91.07
2023-02-20T20:39:23.116Z,91.49
2023-02-20T20:41:51.212Z,91.66
2023-02-20T20:44:20.266Z,92.10
2023-02-20T20:46:48.364Z,92.53
2023-02-20T20:49:17.765Z,92.15
2023-02-20T20:51:47.228Z,92.15
2023-02-20T20:54:15.528Z,91.53
2023-02-20T20:56:48.535Z,91.83
2023-02-20T20:59:17.641Z,92.03
2023-02-20T21:01:46.276Z,92.32
2023-02-20T21:04:14.779Z,92.32
2023-02-20T21:06:44.350Z,92.54
2023-02-20T21:09:12.535Z,92.45
2023-02-20T21:11:41.161Z,92.86
2023-02-20T21:14:09.447Z,92.92
2023-02-20T21:16:37.592Z,92.78
2023-02-20T21:19:05.783Z,92.70
2023-02-20T21:21:34.034Z,93.37
2023-02-20T21:24:03.625Z,93.09
2023-02-20T21:26:32.088Z,93.45
2023-02-20T21:29:00.163Z,93.36
2023-02-20T21:31:28.355Z,93.26
2023-02-20T21:33:57.172Z,93.47
2023-02-20T21:36:26.170Z,93.10
2023-02-20T21:38:54.283Z,92.96
2023-02-20T21:41:43.017Z,93.68
2023-02-20T21:44:29.914Z,93.38
2023-02-20T21:47:00.945Z,93.08
2023-02-20T21:49:31.934Z,93.44
2023-02-20T21:52:00.598Z,93.37
2023-02-20T21:54:32.683Z,93.57
2023-02-20T21:57:02.354Z,93.01
2023-02-20T21:59:29.362Z,93.19
2023-02-20T22:01:56.654Z,93.82
2023-02-20T22:04:24.527Z,93.52
2023-02-20T22:07:11.045Z,93.40
2023-02-20T22:09:56.824Z,93.70
2023-02-20T22:12:43.791Z,93.44
2023-02-20T22:15:31.209Z,94.03
2023-02-20T22:18:17.028Z,94.04
2023-02-20T22:21:02.468Z,93.86
2023-02-20T22:23:47.944Z,93.26
2023-02-20T22:26:35.075Z,93.49
2023-02-20T22:29:23.181Z,93.99
2023-02-20T22:32:09.120Z,93.74
2023-02-20T22:35:09.405Z,93.98
2023-02-20T22:37:56.900Z,93.92
2023-02-20T22:40:42.385Z,93.84
2023-02-20T22:43:27.900Z,93.88
2023-02-20T22:46:15.040Z,93.72
2023-02-20T22:49:00.961Z,93.60
2023-02-20T22:51:46.490Z,93.31
2023-02-20T22:54:32.332Z,93.32
2023-02-20T22:57:18.009Z,93.38
2023-02-20T23:00:03.653Z,93.35
2023-02-20T23:02:51.343Z,92.64
2023-02-20T23:05:36.905Z,92.62
2023-02-20T23:08:22.963Z,92.49
2023-02-20T23:11:08.303Z,92.31
2023-02-20T23:13:53.768Z,92.56
2023-02-20T23:16:42.550Z,92.03
2023-02-20T23:19:30.286Z,92.03
2023-02-20T23:22:15.640Z,92.34
2023-02-20T23:25:01.476Z,91.93
2023-02-20T23:27:46.985Z,91.85
2023-02-20T23:30:33.334Z,92.04
2023-02-20T23:33:19.288Z,91.45
2023-02-20T23:36:06.331Z,91.62
2023-02-20T23:38:51.819Z,91.90
2023-02-20T23:41:37.833Z,91.84
2023-02-20T23:44:24.638Z,91.91
2023-02-20T23:47:10.184Z,92.59
2023-02-20T23:49:55.743Z,92.08
2023-02-20T23:52:42.616Z,92.86
2023-02-20T23:55:28.185Z,92.75
2023-02-20T23:58:13.583Z,93.59
